sensor_id;sensor_type;location;lat;lon;timestamp;noise_LAeq;noise_LA_min;noise_LA_max;noise_LA01;noise_LA95
45109;Laerm;30447;48.742;8.972;2022-09-27T00:01:09;39.01;35.94;46.18;;
45109;Laerm;30447;48.742;8.972;2022-09-27T00:03:36;38.41;34.69;55.98;;
45109;Laerm;30447;48.742;8.972;2022-09-27T00:06:13;38.63;35.04;47.22;;
45109;Laerm;30447;48.742;8.972;2022-09-27T00:08:41;39.53;33.90;50.29;;
45109;Laerm;30447;48.742;8.972;2022-09-27T00:13:45;38.36;34.69;45.48;;
45109;Laerm;30447;48.742;8.972;2022-09-27T00:16:12;38.07;34.31;49.00;;
45109;Laerm;30447;48.742;8.972;2022-09-27T00:18:39;38.15;33.90;44.35;;
45109;Laerm;30447;48.742;8.972;2022-09-27T00:21:08;38.63;34.69;62.05;;
45109;Laerm;30447;48.742;8.972;2022-09-27T00:23:35;38.81;34.31;42.65;;
45109;Laerm;30447;48.742;8.972;2022-09-27T00:26:02;38.97;35.04;43.44;;
45109;Laerm;30447;48.742;8.972;2022-09-27T00:28:29;38.19;34.31;43.72;;
45109;Laerm;30447;48.742;8.972;2022-09-27T00:30:57;38.75;35.36;43.54;;
45109;Laerm;30447;48.742;8.972;2022-09-27T00:33:25;39.61;35.36;65.45;;
45109;Laerm;30447;48.742;8.972;2022-09-27T00:35:52;38.40;33.90;42.41;;
45109;Laerm;30447;48.742;8.972;2022-09-27T00:38:19;38.03;33.90;42.65;;
45109;Laerm;30447;48.742;8.972;2022-09-27T00:40:47;37.78;33.90;42.35;;
45109;Laerm;30447;48.742;8.972;2022-09-27T00:43:17;37.99;33.44;41.38;;
45109;Laerm;30447;48.742;8.972;2022-09-27T00:45:49;38.43;33.90;43.68;;
45109;Laerm;30447;48.742;8.972;2022-09-27T00:48:23;38.39;35.04;47.48;;
45109;Laerm;30447;48.742;8.972;2022-09-27T00:50:57;38.32;34.31;48.40;;
45109;Laerm;30447;48.742;8.972;2022-09-27T00:53:34;38.12;33.44;41.06;;
45109;Laerm;30447;48.742;8.972;2022-09-27T00:56:07;38.08;32.93;40.43;;
45109;Laerm;30447;48.742;8.972;2022-09-27T00:58:40;41.06;34.31;47.16;;
45109;Laerm;30447;48.742;8.972;2022-09-27T01:01:10;38.80;33.90;43.72;;
45109;Laerm;30447;48.742;8.972;2022-09-27T01:03:48;37.77;33.44;40.43;;
45109;Laerm;30447;48.742;8.972;2022-09-27T01:06:20;37.83;33.44;42.53;;
45109;Laerm;30447;48.742;8.972;2022-09-27T01:08:47;37.98;33.90;41.68;;
45109;Laerm;30447;48.742;8.972;2022-09-27T01:16:59;37.88;33.44;41.22;;
45109;Laerm;30447;48.742;8.972;2022-09-27T01:20:06;37.57;33.44;43.19;;
45109;Laerm;30447;48.742;8.972;2022-09-27T01:31:34;39.33;33.90;45.01;;
45109;Laerm;30447;48.742;8.972;2022-09-27T01:34:15;38.58;34.31;43.63;;
45109;Laerm;30447;48.742;8.972;2022-09-27T01:37:08;38.07;33.90;42.22;;
45109;Laerm;30447;48.742;8.972;2022-09-27T01:39:49;38.00;33.90;40.53;;
45109;Laerm;30447;48.742;8.972;2022-09-27T01:42:30;38.12;33.90;41.22;;
45109;Laerm;30447;48.742;8.972;2022-09-27T01:45:25;37.95;33.44;41.46;;
45109;Laerm;30447;48.742;8.972;2022-09-27T01:48:03;38.07;33.44;42.03;;
45109;Laerm;30447;48.742;8.972;2022-09-27T01:50:52;37.97;33.90;48.69;;
45109;Laerm;30447;48.742;8.972;2022-09-27T01:53:34;37.94;33.09;42.98;;
45109;Laerm;30447;48.742;8.972;2022-09-27T01:56:07;38.72;35.04;43.04;;
45109;Laerm;30447;48.742;8.972;2022-09-27T01:58:49;38.23;34.31;41.53;;
45109;Laerm;30447;48.742;8.972;2022-09-27T02:01:21;38.94;35.36;43.86;;
45109;Laerm;30447;48.742;8.972;2022-09-27T02:03:52;41.95;35.66;48.83;;
45109;Laerm;30447;48.742;8.972;2022-09-27T02:06:32;44.52;41.14;64.77;;
45109;Laerm;30447;48.742;8.972;2022-09-27T02:09:11;42.86;39.70;65.52;;
45109;Laerm;30447;48.742;8.972;2022-09-27T02:11:44;44.45;41.46;63.14;;
45109;Laerm;30447;48.742;8.972;2022-09-27T02:14:15;46.36;42.22;66.22;;
45109;Laerm;30447;48.742;8.972;2022-09-27T02:19:23;50.44;46.20;66.26;;
45109;Laerm;30447;48.742;8.972;2022-09-27T02:22:22;49.81;45.69;67.41;;
45109;Laerm;30447;48.742;8.972;2022-09-27T02:25:00;49.21;45.63;66.58;;
45109;Laerm;30447;48.742;8.972;2022-09-27T02:27:34;49.27;44.58;66.41;;
45109;Laerm;30447;48.742;8.972;2022-09-27T02:30:13;47.67;43.81;68.64;;
45109;Laerm;30447;48.742;8.972;2022-09-27T02:32:41;45.33;40.03;65.17;;
45109;Laerm;30447;48.742;8.972;2022-09-27T02:35:24;42.82;40.43;60.13;;
45109;Laerm;30447;48.742;8.972;2022-09-27T02:37:54;43.02;38.95;65.99;;
45109;Laerm;30447;48.742;8.972;2022-09-27T02:40:21;41.04;37.52;61.34;;
45109;Laerm;30447;48.742;8.972;2022-09-27T02:42:49;40.93;36.69;58.57;;
45109;Laerm;30447;48.742;8.972;2022-09-27T02:45:17;40.22;37.52;56.12;;
45109;Laerm;30447;48.742;8.972;2022-09-27T02:55:36;40.90;37.32;44.94;;
45109;Laerm;30447;48.742;8.972;2022-09-27T03:01:07;40.76;37.32;44.62;;
45109;Laerm;30447;48.742;8.972;2022-09-27T03:05:04;40.94;37.32;45.42;;
45109;Laerm;30447;48.742;8.972;2022-09-27T03:06:59;41.62;38.05;48.00;;
45109;Laerm;30447;48.742;8.972;2022-09-27T03:09:43;42.22;38.67;47.39;;
45109;Laerm;30447;48.742;8.972;2022-09-27T03:12:11;41.92;39.46;46.55;;
45109;Laerm;30447;48.742;8.972;2022-09-27T03:14:37;41.84;38.95;51.00;;
45109;Laerm;30447;48.742;8.972;2022-09-27T03:17:03;42.07;39.46;44.52;;
45109;Laerm;30447;48.742;8.972;2022-09-27T03:19:30;42.10;38.67;45.20;;
45109;Laerm;30447;48.742;8.972;2022-09-27T03:21:56;42.21;39.70;48.08;;
45109;Laerm;30447;48.742;8.972;2022-09-27T03:24:23;41.96;39.58;44.65;;
45109;Laerm;30447;48.742;8.972;2022-09-27T03:26:49;42.20;39.92;45.20;;
45109;Laerm;30447;48.742;8.972;2022-09-27T03:29:16;41.98;39.70;44.27;;
45109;Laerm;30447;48.742;8.972;2022-09-27T03:31:42;42.30;40.13;44.76;;
45109;Laerm;30447;48.742;8.972;2022-09-27T03:34:08;42.89;39.81;46.02;;
45109;Laerm;30447;48.742;8.972;2022-09-27T03:36:35;42.00;39.21;44.76;;
45109;Laerm;30447;48.742;8.972;2022-09-27T03:39:01;41.51;38.99;43.81;;
45109;Laerm;30447;48.742;8.972;2022-09-27T03:41:28;41.76;38.95;46.35;;
45109;Laerm;30447;48.742;8.972;2022-09-27T03:43:54;41.74;39.08;44.94;;
45109;Laerm;30447;48.742;8.972;2022-09-27T03:46:25;41.58;38.67;44.51;;
45109;Laerm;30447;48.742;8.972;2022-09-27T03:48:52;41.99;39.21;45.48;;
45109;Laerm;30447;48.742;8.972;2022-09-27T03:51:18;42.12;39.92;44.16;;
45109;Laerm;30447;48.742;8.972;2022-09-27T03:53:44;42.23;39.92;44.47;;
45109;Laerm;30447;48.742;8.972;2022-09-27T03:56:11;42.12;39.46;45.25;;
45109;Laerm;30447;48.742;8.972;2022-09-27T03:58:37;46.49;39.92;63.30;;
45109;Laerm;30447;48.742;8.972;2022-09-27T04:01:04;42.72;39.58;50.01;;
45109;Laerm;30447;48.742;8.972;2022-09-27T04:03:30;43.28;40.89;49.12;;
45109;Laerm;30447;48.742;8.972;2022-09-27T04:05:57;42.83;40.13;46.84;;
45109;Laerm;30447;48.742;8.972;2022-09-27T04:08:25;42.31;39.46;48.05;;
45109;Laerm;30447;48.742;8.972;2022-09-27T04:10:52;42.17;39.81;45.17;;
45109;Laerm;30447;48.742;8.972;2022-09-27T04:13:18;41.61;39.21;45.91;;
45109;Laerm;30447;48.742;8.972;2022-09-27T04:15:45;41.63;39.21;43.44;;
45109;Laerm;30447;48.742;8.972;2022-09-27T04:18:11;41.92;39.46;44.03;;
45109;Laerm;30447;48.742;8.972;2022-09-27T04:20:38;42.24;39.70;46.91;;
45109;Laerm;30447;48.742;8.972;2022-09-27T04:23:05;42.37;39.21;46.50;;
45109;Laerm;30447;48.742;8.972;2022-09-27T04:25:32;41.84;39.46;44.39;;
45109;Laerm;30447;48.742;8.972;2022-09-27T04:27:59;41.97;39.58;43.94;;
45109;Laerm;30447;48.742;8.972;2022-09-27T04:30:27;42.49;39.92;45.60;;
45109;Laerm;30447;48.742;8.972;2022-09-27T04:32:54;42.43;40.53;44.58;;
45109;Laerm;30447;48.742;8.972;2022-09-27T04:35:21;42.44;40.23;44.92;;
45109;Laerm;30447;48.742;8.972;2022-09-27T04:38:06;42.93;40.71;46.25;;
45109;Laerm;30447;48.742;8.972;2022-09-27T04:40:33;42.47;39.70;56.86;;
45109;Laerm;30447;48.742;8.972;2022-09-27T04:43:03;42.29;39.21;56.74;;
45109;Laerm;30447;48.742;8.972;2022-09-27T04:45:30;41.75;39.08;45.17;;
45109;Laerm;30447;48.742;8.972;2022-09-27T04:47:57;42.22;39.46;44.39;;
45109;Laerm;30447;48.742;8.972;2022-09-27T04:50:24;42.09;39.46;46.57;;
45109;Laerm;30447;48.742;8.972;2022-09-27T04:52:52;42.61;39.70;56.91;;
45109;Laerm;30447;48.742;8.972;2022-09-27T04:55:20;42.47;40.33;47.61;;
45109;Laerm;30447;48.742;8.972;2022-09-27T04:57:48;42.57;40.33;46.73;;
45109;Laerm;30447;48.742;8.972;2022-09-27T05:00:15;43.02;40.43;46.43;;
45109;Laerm;30447;48.742;8.972;2022-09-27T05:02:43;43.49;40.80;54.49;;
45109;Laerm;30447;48.742;8.972;2022-09-27T05:05:10;43.71;40.80;50.39;;
45109;Laerm;30447;48.742;8.972;2022-09-27T05:07:37;47.17;39.81;62.50;;
45109;Laerm;30447;48.742;8.972;2022-09-27T05:10:06;43.43;40.33;58.56;;
45109;Laerm;30447;48.742;8.972;2022-09-27T05:12:32;42.30;40.03;48.08;;
45109;Laerm;30447;48.742;8.972;2022-09-27T05:14:59;43.88;40.13;57.76;;
45109;Laerm;30447;48.742;8.972;2022-09-27T05:17:25;43.65;40.98;52.14;;
45109;Laerm;30447;48.742;8.972;2022-09-27T05:19:52;43.17;40.98;46.52;;
45109;Laerm;30447;48.742;8.972;2022-09-27T05:22:18;43.48;41.53;48.67;;
45109;Laerm;30447;48.742;8.972;2022-09-27T05:24:45;43.89;40.89;50.59;;
45109;Laerm;30447;48.742;8.972;2022-09-27T05:27:14;43.33;41.38;48.63;;
45109;Laerm;30447;48.742;8.972;2022-09-27T05:29:43;43.94;41.30;49.67;;
45109;Laerm;30447;48.742;8.972;2022-09-27T05:32:10;43.90;41.75;49.49;;
45109;Laerm;30447;48.742;8.972;2022-09-27T05:34:37;43.94;41.75;52.47;;
45109;Laerm;30447;48.742;8.972;2022-09-27T05:37:03;44.37;41.53;58.56;;
45109;Laerm;30447;48.742;8.972;2022-09-27T05:39:30;44.17;41.46;63.89;;
45109;Laerm;30447;48.742;8.972;2022-09-27T05:41:56;45.43;42.03;63.78;;
45109;Laerm;30447;48.742;8.972;2022-09-27T05:44:24;44.63;41.22;65.01;;
45109;Laerm;30447;48.742;8.972;2022-09-27T05:46:53;43.84;41.61;61.45;;
45109;Laerm;30447;48.742;8.972;2022-09-27T05:49:20;45.02;41.75;65.22;;
45109;Laerm;30447;48.742;8.972;2022-09-27T05:51:46;45.27;42.03;63.31;;
45109;Laerm;30447;48.742;8.972;2022-09-27T05:54:13;44.95;42.47;64.22;;
45109;Laerm;30447;48.742;8.972;2022-09-27T05:56:39;44.86;41.68;63.55;;
45109;Laerm;30447;48.742;8.972;2022-09-27T05:59:06;44.08;41.53;54.56;;
45109;Laerm;30447;48.742;8.972;2022-09-27T06:01:32;43.64;41.82;50.18;;
45109;Laerm;30447;48.742;8.972;2022-09-27T06:04:02;43.43;41.53;49.81;;
45109;Laerm;30447;48.742;8.972;2022-09-27T06:06:28;43.84;41.06;64.94;;
45109;Laerm;30447;48.742;8.972;2022-09-27T06:08:55;43.89;41.46;53.21;;
45109;Laerm;30447;48.742;8.972;2022-09-27T06:11:21;44.82;41.61;58.25;;
45109;Laerm;30447;48.742;8.972;2022-09-27T06:13:48;43.48;40.80;54.99;;
45109;Laerm;30447;48.742;8.972;2022-09-27T06:16:14;43.46;40.89;54.36;;
45109;Laerm;30447;48.742;8.972;2022-09-27T06:18:41;43.70;39.58;63.98;;
45109;Laerm;30447;48.742;8.972;2022-09-27T06:21:08;43.45;41.30;53.06;;
45109;Laerm;30447;48.742;8.972;2022-09-27T06:23:35;43.60;41.14;50.69;;
45109;Laerm;30447;48.742;8.972;2022-09-27T06:26:04;43.57;41.61;52.67;;
45109;Laerm;30447;48.742;8.972;2022-09-27T06:28:31;44.11;40.71;63.54;;
45109;Laerm;30447;48.742;8.972;2022-09-27T06:31:00;43.65;41.30;49.47;;
45109;Laerm;30447;48.742;8.972;2022-09-27T06:33:26;44.43;41.68;56.43;;
45109;Laerm;30447;48.742;8.972;2022-09-27T06:35:53;43.86;41.22;53.29;;
45109;Laerm;30447;48.742;8.972;2022-09-27T06:38:20;43.52;40.89;53.78;;
45109;Laerm;30447;48.742;8.972;2022-09-27T06:40:47;45.02;40.98;60.08;;
45109;Laerm;30447;48.742;8.972;2022-09-27T06:43:16;43.65;40.53;56.99;;
45109;Laerm;30447;48.742;8.972;2022-09-27T06:45:43;43.93;40.33;62.61;;
45109;Laerm;30447;48.742;8.972;2022-09-27T06:48:11;43.32;40.62;52.57;;
45109;Laerm;30447;48.742;8.972;2022-09-27T06:50:40;43.38;41.06;51.09;;
45109;Laerm;30447;48.742;8.972;2022-09-27T06:53:09;42.83;40.71;50.18;;
45109;Laerm;30447;48.742;8.972;2022-09-27T06:55:38;43.48;41.38;48.29;;
45109;Laerm;30447;48.742;8.972;2022-09-27T06:58:05;43.46;40.53;65.99;;
45109;Laerm;30447;48.742;8.972;2022-09-27T07:00:52;42.94;40.62;50.99;;
45109;Laerm;30447;48.742;8.972;2022-09-27T07:03:20;43.15;41.14;46.76;;
45109;Laerm;30447;48.742;8.972;2022-09-27T07:06:00;43.05;40.89;46.52;;
45109;Laerm;30447;48.742;8.972;2022-09-27T07:08:27;44.24;41.14;58.37;;
45109;Laerm;30447;48.742;8.972;2022-09-27T07:10:59;43.82;41.22;55.39;;
45109;Laerm;30447;48.742;8.972;2022-09-27T07:13:26;43.26;39.70;50.99;;
45109;Laerm;30447;48.742;8.972;2022-09-27T07:15:54;43.43;40.71;65.18;;
45109;Laerm;30447;48.742;8.972;2022-09-27T07:18:21;42.82;40.13;50.81;;
45109;Laerm;30447;48.742;8.972;2022-09-27T07:20:48;43.14;40.98;47.04;;
45109;Laerm;30447;48.742;8.972;2022-09-27T07:23:16;43.26;41.06;50.28;;
45109;Laerm;30447;48.742;8.972;2022-09-27T07:25:42;43.72;41.30;50.39;;
45109;Laerm;30447;48.742;8.972;2022-09-27T07:28:13;45.62;41.22;61.62;;
45109;Laerm;30447;48.742;8.972;2022-09-27T07:30:40;44.51;40.13;58.49;;
45109;Laerm;30447;48.742;8.972;2022-09-27T07:33:07;43.45;40.98;54.93;;
45109;Laerm;30447;48.742;8.972;2022-09-27T07:35:38;43.41;40.89;56.22;;
45109;Laerm;30447;48.742;8.972;2022-09-27T07:38:10;43.05;40.71;53.10;;
45109;Laerm;30447;48.742;8.972;2022-09-27T07:40:40;42.69;40.03;53.90;;
45109;Laerm;30447;48.742;8.972;2022-09-27T07:43:07;43.33;40.89;48.08;;
45109;Laerm;30447;48.742;8.972;2022-09-27T07:45:35;43.96;41.61;58.95;;
45109;Laerm;30447;48.742;8.972;2022-09-27T07:48:06;43.49;40.33;51.75;;
45109;Laerm;30447;48.742;8.972;2022-09-27T07:50:34;45.40;40.62;65.59;;
45109;Laerm;30447;48.742;8.972;2022-09-27T07:53:00;43.17;40.80;52.85;;
45109;Laerm;30447;48.742;8.972;2022-09-27T07:55:27;43.39;40.23;49.98;;
45109;Laerm;30447;48.742;8.972;2022-09-27T07:58:05;43.59;41.14;52.90;;
45109;Laerm;30447;48.742;8.972;2022-09-27T08:00:32;42.98;40.53;50.92;;
45109;Laerm;30447;48.742;8.972;2022-09-27T08:03:07;43.13;39.70;59.22;;
45109;Laerm;30447;48.742;8.972;2022-09-27T08:05:35;44.32;40.89;58.65;;
45109;Laerm;30447;48.742;8.972;2022-09-27T08:08:02;44.97;40.23;65.45;;
45109;Laerm;30447;48.742;8.972;2022-09-27T08:10:30;43.99;40.89;59.12;;
45109;Laerm;30447;48.742;8.972;2022-09-27T08:12:58;44.23;41.14;52.09;;
45109;Laerm;30447;48.742;8.972;2022-09-27T08:15:26;43.05;39.92;54.76;;
45109;Laerm;30447;48.742;8.972;2022-09-27T08:17:53;43.58;40.53;54.26;;
45109;Laerm;30447;48.742;8.972;2022-09-27T08:20:20;42.86;39.81;56.24;;
45109;Laerm;30447;48.742;8.972;2022-09-27T08:22:47;43.64;40.98;54.18;;
45109;Laerm;30447;48.742;8.972;2022-09-27T08:25:13;43.33;40.71;51.55;;
45109;Laerm;30447;48.742;8.972;2022-09-27T08:27:40;46.28;39.81;62.36;;
45109;Laerm;30447;48.742;8.972;2022-09-27T08:30:07;43.60;40.23;54.74;;
45109;Laerm;30447;48.742;8.972;2022-09-27T08:32:34;42.54;39.70;49.15;;
45109;Laerm;30447;48.742;8.972;2022-09-27T08:35:01;42.36;39.34;50.33;;
45109;Laerm;30447;48.742;8.972;2022-09-27T08:37:28;42.76;40.33;51.14;;
45109;Laerm;30447;48.742;8.972;2022-09-27T08:39:55;48.32;39.81;67.36;;
45109;Laerm;30447;48.742;8.972;2022-09-27T08:42:43;43.27;39.08;64.48;;
45109;Laerm;30447;48.742;8.972;2022-09-27T08:45:23;41.86;39.08;50.14;;
45109;Laerm;30447;48.742;8.972;2022-09-27T08:47:57;41.94;39.08;48.64;;
45109;Laerm;30447;48.742;8.972;2022-09-27T08:50:29;42.56;39.34;55.13;;
45109;Laerm;30447;48.742;8.972;2022-09-27T08:53:16;42.17;38.95;50.75;;
45109;Laerm;30447;48.742;8.972;2022-09-27T08:55:56;42.32;39.21;52.50;;
45109;Laerm;30447;48.742;8.972;2022-09-27T08:58:34;41.84;39.34;48.54;;
45109;Laerm;30447;48.742;8.972;2022-09-27T09:01:05;41.84;39.08;48.29;;
45109;Laerm;30447;48.742;8.972;2022-09-27T09:03:38;42.13;38.81;47.88;;
45109;Laerm;30447;48.742;8.972;2022-09-27T09:06:26;42.96;39.70;52.04;;
45109;Laerm;30447;48.742;8.972;2022-09-27T09:09:02;43.01;40.33;54.05;;
45109;Laerm;30447;48.742;8.972;2022-09-27T09:17:13;44.02;40.53;54.61;;
45109;Laerm;30447;48.742;8.972;2022-09-27T09:20:02;45.30;40.03;69.54;;
45109;Laerm;30447;48.742;8.972;2022-09-27T09:23:00;44.34;41.33;59.49;;
45109;Laerm;30447;48.742;8.972;2022-09-27T09:36:49;44.94;41.22;55.84;;
45109;Laerm;30447;48.742;8.972;2022-09-27T09:42:38;45.99;39.92;65.31;;
45109;Laerm;30447;48.742;8.972;2022-09-27T09:45:19;42.85;39.08;55.61;;
45109;Laerm;30447;48.742;8.972;2022-09-27T09:50:29;46.91;39.58;59.83;;
45109;Laerm;30447;48.742;8.972;2022-09-27T09:53:15;48.65;40.43;58.07;;
45109;Laerm;30447;48.742;8.972;2022-09-27T09:55:51;50.16;39.08;59.91;;
45109;Laerm;30447;48.742;8.972;2022-09-27T09:58:38;58.00;38.95;73.33;;
45109;Laerm;30447;48.742;8.972;2022-09-27T10:01:22;57.15;39.81;70.03;;
45109;Laerm;30447;48.742;8.972;2022-09-27T10:03:50;57.62;39.34;65.47;;
45109;Laerm;30447;48.742;8.972;2022-09-27T10:06:17;62.59;39.70;67.67;;
45109;Laerm;30447;48.742;8.972;2022-09-27T10:08:44;61.31;41.30;68.01;;
45109;Laerm;30447;48.742;8.972;2022-09-27T10:11:25;57.04;39.81;64.78;;
45109;Laerm;30447;48.742;8.972;2022-09-27T10:13:53;55.59;39.08;70.42;;
45109;Laerm;30447;48.742;8.972;2022-09-27T10:16:22;57.93;39.46;73.88;;
45109;Laerm;30447;48.742;8.972;2022-09-27T10:18:56;56.22;40.33;67.45;;
45109;Laerm;30447;48.742;8.972;2022-09-27T10:21:28;50.93;38.05;67.30;;
45109;Laerm;30447;48.742;8.972;2022-09-27T10:24:13;52.37;40.33;66.02;;
45109;Laerm;30447;48.742;8.972;2022-09-27T10:26:44;49.80;38.37;57.08;;
45109;Laerm;30447;48.742;8.972;2022-09-27T10:29:21;47.08;38.95;65.11;;
45109;Laerm;30447;48.742;8.972;2022-09-27T10:31:50;51.86;38.95;67.97;;
45109;Laerm;30447;48.742;8.972;2022-09-27T10:34:27;55.93;38.95;75.30;;
45109;Laerm;30447;48.742;8.972;2022-09-27T10:37:21;42.66;38.37;62.22;;
45109;Laerm;30447;48.742;8.972;2022-09-27T10:39:49;43.61;38.81;66.07;;
45109;Laerm;30447;48.742;8.972;2022-09-27T10:42:34;52.03;39.46;72.33;;
45109;Laerm;30447;48.742;8.972;2022-09-27T10:45:27;42.83;38.81;61.22;;
45109;Laerm;30447;48.742;8.972;2022-09-27T10:47:54;42.84;38.95;56.53;;
45109;Laerm;30447;48.742;8.972;2022-09-27T10:50:27;41.76;38.52;49.10;;
45109;Laerm;30447;48.742;8.972;2022-09-27T10:53:15;42.43;39.46;51.96;;
45109;Laerm;30447;48.742;8.972;2022-09-27T10:55:47;42.34;39.21;55.02;;
45109;Laerm;30447;48.742;8.972;2022-09-27T10:58:27;42.01;38.95;56.45;;
45109;Laerm;30447;48.742;8.972;2022-09-27T11:01:06;42.14;37.88;53.55;;
45109;Laerm;30447;48.742;8.972;2022-09-27T11:03:56;43.27;38.81;58.36;;
45109;Laerm;30447;48.742;8.972;2022-09-27T11:08:52;46.71;40.27;57.86;;
45109;Laerm;30447;48.742;8.972;2022-09-27T11:11:23;48.03;41.22;61.59;;
45109;Laerm;30447;48.742;8.972;2022-09-27T11:14:05;49.45;42.47;59.20;;
45109;Laerm;30447;48.742;8.972;2022-09-27T11:42:12;45.87;40.13;60.90;;
45109;Laerm;30447;48.742;8.972;2022-09-27T11:47:41;43.46;39.81;59.63;;
45109;Laerm;30447;48.742;8.972;2022-09-27T11:50:18;43.19;40.53;50.28;;
45109;Laerm;30447;48.742;8.972;2022-09-27T12:01:17;42.66;39.21;55.69;;
45109;Laerm;30447;48.742;8.972;2022-09-27T12:09:33;42.84;40.13;59.16;;
45109;Laerm;30447;48.742;8.972;2022-09-27T12:12:18;42.56;40.23;50.68;;
45109;Laerm;30447;48.742;8.972;2022-09-27T12:15:00;43.18;39.92;48.88;;
45109;Laerm;30447;48.742;8.972;2022-09-27T12:17:32;44.60;41.82;59.84;;
45109;Laerm;30447;48.742;8.972;2022-09-27T12:20:15;42.44;39.21;55.86;;
45109;Laerm;30447;48.742;8.972;2022-09-27T12:22:59;41.88;38.52;49.79;;
45109;Laerm;30447;48.742;8.972;2022-09-27T12:25:35;41.63;38.05;50.23;;
45109;Laerm;30447;48.742;8.972;2022-09-27T12:30:53;42.44;39.08;49.88;;
45109;Laerm;30447;48.742;8.972;2022-09-27T12:33:31;41.29;38.67;46.62;;
45109;Laerm;30447;48.742;8.972;2022-09-27T12:36:05;42.33;38.95;48.96;;
45109;Laerm;30447;48.742;8.972;2022-09-27T12:42:05;41.70;38.67;52.02;;
45109;Laerm;30447;48.742;8.972;2022-09-27T12:44:39;42.09;38.81;52.66;;
45109;Laerm;30447;48.742;8.972;2022-09-27T12:50:03;42.28;39.34;49.77;;
45109;Laerm;30447;48.742;8.972;2022-09-27T12:52:42;51.35;39.08;70.60;;
45109;Laerm;30447;48.742;8.972;2022-09-27T13:03:56;41.04;38.37;48.16;;
45109;Laerm;30447;48.742;8.972;2022-09-27T13:06:44;41.63;37.70;51.94;;
45109;Laerm;30447;48.742;8.972;2022-09-27T13:12:28;41.60;38.21;47.40;;
45109;Laerm;30447;48.742;8.972;2022-09-27T13:15:15;42.35;39.34;48.81;;
45109;Laerm;30447;48.742;8.972;2022-09-27T13:17:52;42.19;39.21;47.30;;
45109;Laerm;30447;48.742;8.972;2022-09-27T13:25:56;41.31;37.88;46.23;;
45109;Laerm;30447;48.742;8.972;2022-09-27T13:31:08;41.93;38.95;49.80;;
45109;Laerm;30447;48.742;8.972;2022-09-27T13:33:51;41.49;38.95;49.50;;
45109;Laerm;30447;48.742;8.972;2022-09-27T13:36:28;41.76;38.52;48.26;;
45109;Laerm;30447;48.742;8.972;2022-09-27T13:49:50;41.62;38.52;45.97;;
45109;Laerm;30447;48.742;8.972;2022-09-27T13:52:30;42.50;39.58;52.72;;
45109;Laerm;30447;48.742;8.972;2022-09-27T13:55:01;42.88;39.81;50.65;;
45109;Laerm;30447;48.742;8.972;2022-09-27T13:57:50;43.74;40.33;53.49;;
45109;Laerm;30447;48.742;8.972;2022-09-27T14:00:24;43.88;41.46;51.28;;
45109;Laerm;30447;48.742;8.972;2022-09-27T14:02:59;45.97;41.96;57.51;;
45109;Laerm;30447;48.742;8.972;2022-09-27T14:05:35;45.20;40.96;60.94;;
45109;Laerm;30447;48.742;8.972;2022-09-27T14:08:06;42.55;38.95;45.45;;
45109;Laerm;30447;48.742;8.972;2022-09-27T14:10:42;43.17;40.03;54.24;;
45109;Laerm;30447;48.742;8.972;2022-09-27T14:13:18;42.62;40.33;52.77;;
45109;Laerm;30447;48.742;8.972;2022-09-27T14:15:46;44.56;40.53;55.04;;
45109;Laerm;30447;48.742;8.972;2022-09-27T14:18:13;46.09;42.09;60.99;;
45109;Laerm;30447;48.742;8.972;2022-09-27T14:20:45;44.59;41.82;51.20;;
45109;Laerm;30447;48.742;8.972;2022-09-27T14:23:24;44.17;40.89;52.04;;
45109;Laerm;30447;48.742;8.972;2022-09-27T14:25:53;43.03;40.80;54.50;;
45109;Laerm;30447;48.742;8.972;2022-09-27T14:28:25;42.99;40.43;53.60;;
45109;Laerm;30447;48.742;8.972;2022-09-27T14:31:06;43.29;40.62;48.07;;
45109;Laerm;30447;48.742;8.972;2022-09-27T14:33:33;45.83;39.70;59.94;;
45109;Laerm;30447;48.742;8.972;2022-09-27T14:36:00;43.12;39.58;49.21;;
45109;Laerm;30447;48.742;8.972;2022-09-27T14:38:45;42.87;39.92;46.05;;
45109;Laerm;30447;48.742;8.972;2022-09-27T14:41:14;42.46;39.34;48.05;;
45109;Laerm;30447;48.742;8.972;2022-09-27T14:43:45;43.09;40.33;49.73;;
45109;Laerm;30447;48.742;8.972;2022-09-27T14:46:25;42.86;40.03;46.87;;
45109;Laerm;30447;48.742;8.972;2022-09-27T14:48:52;42.33;39.34;52.63;;
45109;Laerm;30447;48.742;8.972;2022-09-27T14:51:25;42.22;39.92;45.83;;
45109;Laerm;30447;48.742;8.972;2022-09-27T14:53:55;46.10;40.13;63.63;;
45109;Laerm;30447;48.742;8.972;2022-09-27T14:56:32;41.74;38.52;51.82;;
45109;Laerm;30447;48.742;8.972;2022-09-27T14:59:02;41.60;38.67;47.14;;
45109;Laerm;30447;48.742;8.972;2022-09-27T15:01:31;42.97;39.81;47.57;;
45109;Laerm;30447;48.742;8.972;2022-09-27T15:04:06;42.24;38.81;47.77;;
45109;Laerm;30447;48.742;8.972;2022-09-27T15:06:37;41.22;38.67;44.07;;
45109;Laerm;30447;48.742;8.972;2022-09-27T15:09:05;42.02;39.46;45.99;;
45109;Laerm;30447;48.742;8.972;2022-09-27T15:11:33;42.79;39.46;53.40;;
45109;Laerm;30447;48.742;8.972;2022-09-27T15:14:00;41.37;38.81;46.13;;
45109;Laerm;30447;48.742;8.972;2022-09-27T15:16:30;41.02;38.21;49.45;;
45109;Laerm;30447;48.742;8.972;2022-09-27T15:19:13;41.97;39.08;45.57;;
45109;Laerm;30447;48.742;8.972;2022-09-27T15:21:40;41.98;39.70;47.68;;
45109;Laerm;30447;48.742;8.972;2022-09-27T15:24:36;41.90;38.52;46.57;;
45109;Laerm;30447;48.742;8.972;2022-09-27T15:27:13;42.59;40.23;49.39;;
45109;Laerm;30447;48.742;8.972;2022-09-27T15:29:41;43.17;40.80;54.22;;
45109;Laerm;30447;48.742;8.972;2022-09-27T15:32:16;43.19;40.62;55.26;;
45109;Laerm;30447;48.742;8.972;2022-09-27T15:34:43;49.38;41.46;67.15;;
45109;Laerm;30447;48.742;8.972;2022-09-27T15:39:52;45.56;40.98;55.56;;
45109;Laerm;30447;48.742;8.972;2022-09-27T15:42:18;43.04;40.33;51.18;;
45109;Laerm;30447;48.742;8.972;2022-09-27T15:44:50;45.21;41.89;62.90;;
45109;Laerm;30447;48.742;8.972;2022-09-27T15:47:38;43.05;40.71;50.77;;
45109;Laerm;30447;48.742;8.972;2022-09-27T15:50:31;43.60;40.80;58.28;;
45109;Laerm;30447;48.742;8.972;2022-09-27T15:52:58;47.17;40.62;63.58;;
45109;Laerm;30447;48.742;8.972;2022-09-27T15:55:26;48.19;39.70;57.41;;
45109;Laerm;30447;48.742;8.972;2022-09-27T15:57:58;45.70;39.21;61.66;;
45109;Laerm;30447;48.742;8.972;2022-09-27T16:00:25;42.57;39.58;57.84;;
45109;Laerm;30447;48.742;8.972;2022-09-27T16:02:52;42.46;40.03;45.91;;
45109;Laerm;30447;48.742;8.972;2022-09-27T16:05:20;43.50;40.03;54.20;;
45109;Laerm;30447;48.742;8.972;2022-09-27T16:07:48;43.40;40.33;54.19;;
45109;Laerm;30447;48.742;8.972;2022-09-27T16:10:25;42.95;40.03;52.14;;
45109;Laerm;30447;48.742;8.972;2022-09-27T16:12:52;41.89;39.08;46.35;;
45109;Laerm;30447;48.742;8.972;2022-09-27T16:15:18;42.35;38.37;54.18;;
45109;Laerm;30447;48.742;8.972;2022-09-27T16:17:45;42.30;38.81;49.79;;
45109;Laerm;30447;48.742;8.972;2022-09-27T16:20:18;43.05;40.13;56.17;;
45109;Laerm;30447;48.742;8.972;2022-09-27T16:22:46;41.26;38.67;47.48;;
45109;Laerm;30447;48.742;8.972;2022-09-27T16:25:13;41.88;39.34;48.46;;
45109;Laerm;30447;48.742;8.972;2022-09-27T16:27:40;41.59;38.37;53.62;;
45109;Laerm;30447;48.742;8.972;2022-09-27T16:30:07;42.13;38.67;51.03;;
45109;Laerm;30447;48.742;8.972;2022-09-27T16:32:39;42.46;38.37;53.63;;